Darstellungsparameter: Aktuell verwendete Einstellungen:
Skalierung der Graphiken ... ?
xyx+y,   Skalierungsfaktor:      Skalierung: Modus: x, Faktor: 1
Darstellungszeitraum ... ?
Vom - - bis: - -   Zeitraum: 28.01.2021 - 28.01.2021
Min/Max/Avg-Anzeige ... ?
Zeige MMA aktuell
Zeige MMA Monat
Zeige MMA alles
Zeige --A aktuell
Zeige --A Monat
Zeige --A alles
Keine MMA-Anzeige
MMA:
Keine MMA-Graphiken
MMA-Basis: 28.01.2021 - 28.01.2021
Quicknavigation für Darstellung... ?
Tage:      1T, 2T, 3T, 5T -1T -2T -3T -5T +1T +2T +3T +5T
Wochen: 1W, 2W, 3W -1W -2W -3W +1W +2W +3W
Monate: 1M, 3M, 6M -1M -3M -6M +1M +3M +6M
Jahre:    1J, 3J, 5J, 10J -1J -3J -5J -10J +1J +3J +5J +10J
Nutze für die Darstellung ... ?
Originaldaten oder Mittelwerte auf ...
Stundenbasis Tagesbasis Wochenbasis
Monatsbasis Jahresbasis      Datenbasis: Original-Daten
Darstellen als:
Statistik (Auto) Statistik J:M      Darstellung:
Zur Graphik,    zurück zur Übersicht aller Sensoren.
 
Tabellarische Datenbersicht: ?
 
Sensor: Nr:Datum:Temp:Feuchte:Taupunkt:
Aussen-T/F 1 28-01-2021 00:00:00 3.8 C 94 % 2.93 C
2 28-01-2021 00:05:00 3.8 C 94 % 2.93 C
3 28-01-2021 00:10:00 3.8 C 94 % 2.93 C
4 28-01-2021 00:15:00 3.8 C 94 % 2.93 C
5 28-01-2021 00:20:00 3.8 C 94 % 2.93 C
6 28-01-2021 00:25:00 3.9 C 94 % 3.02 C
7 28-01-2021 00:30:00 3.9 C 94 % 3.02 C
8 28-01-2021 00:35:00 3.9 C 94 % 3.02 C
9 28-01-2021 00:40:00 3.9 C 94 % 3.02 C
10 28-01-2021 00:45:00 4 C 94 % 3.12 C
11 28-01-2021 00:50:00 4 C 94 % 3.12 C
12 28-01-2021 00:55:00 4.1 C 94 % 3.22 C
13 28-01-2021 01:00:00 4 C 94 % 3.12 C
14 28-01-2021 01:05:00 4 C 94 % 3.12 C
15 28-01-2021 01:10:00 4.1 C 94 % 3.22 C
16 28-01-2021 01:15:00 4.1 C 94 % 3.22 C
17 28-01-2021 01:20:00 4.1 C 94 % 3.22 C
18 28-01-2021 01:25:00 4.1 C 94 % 3.22 C
19 28-01-2021 01:30:00 4.1 C 94 % 3.22 C
20 28-01-2021 01:35:00 4.1 C 94 % 3.22 C
21 28-01-2021 01:40:00 4.2 C 94 % 3.32 C
22 28-01-2021 01:45:00 4.2 C 94 % 3.32 C
23 28-01-2021 01:50:00 4.2 C 94 % 3.32 C
24 28-01-2021 01:55:00 4.2 C 94 % 3.32 C
25 28-01-2021 02:00:00 4.2 C 94 % 3.32 C
Sensor: Nr:Datum:Temp:Feuchte:Taupunkt:
Aussen-T/F 26 28-01-2021 02:05:00 4.3 C 94 % 3.42 C
27 28-01-2021 02:10:00 4.3 C 94 % 3.42 C
28 28-01-2021 02:15:00 4.3 C 94 % 3.42 C
29 28-01-2021 02:20:00 4.3 C 94 % 3.42 C
30 28-01-2021 02:25:00 4.4 C 94 % 3.52 C
31 28-01-2021 02:30:00 4.4 C 94 % 3.52 C
32 28-01-2021 02:35:00 4.4 C 94 % 3.52 C
33 28-01-2021 02:40:00 4.4 C 94 % 3.52 C
34 28-01-2021 02:45:00 4.4 C 94 % 3.52 C
35 28-01-2021 02:50:00 4.4 C 94 % 3.52 C
36 28-01-2021 02:55:00 4.4 C 94 % 3.52 C
37 28-01-2021 03:00:00 4.6 C 95 % 3.87 C
38 28-01-2021 03:05:00 4.6 C 94 % 3.72 C
39 28-01-2021 03:10:00 4.6 C 94 % 3.72 C
40 28-01-2021 03:15:00 4.7 C 94 % 3.82 C
41 28-01-2021 03:20:00 4.7 C 94 % 3.82 C
42 28-01-2021 03:25:00 4.7 C 94 % 3.82 C
43 28-01-2021 03:30:00 4.7 C 94 % 3.82 C
44 28-01-2021 03:35:00 4.7 C 94 % 3.82 C
45 28-01-2021 03:40:00 4.7 C 94 % 3.82 C
46 28-01-2021 03:45:00 4.7 C 94 % 3.82 C
47 28-01-2021 03:50:00 4.7 C 94 % 3.82 C
48 28-01-2021 03:55:00 4.6 C 94 % 3.72 C
49 28-01-2021 04:00:00 4.6 C 95 % 3.87 C
50 28-01-2021 04:05:00 4.6 C 95 % 3.87 C
Sensor: Nr:Datum:Temp:Feuchte:Taupunkt:
Aussen-T/F 51 28-01-2021 04:10:00 4.6 C 95 % 3.87 C
52 28-01-2021 04:15:00 4.6 C 95 % 3.87 C
53 28-01-2021 04:20:00 4.6 C 95 % 3.87 C
54 28-01-2021 04:25:00 4.6 C 95 % 3.87 C
55 28-01-2021 04:30:00 4.6 C 95 % 3.87 C
56 28-01-2021 04:35:00 4.6 C 95 % 3.87 C
57 28-01-2021 04:40:00 4.5 C 95 % 3.77 C
58 28-01-2021 04:45:00 4.5 C 95 % 3.77 C
59 28-01-2021 04:50:00 4.5 C 95 % 3.77 C
60 28-01-2021 04:55:00 4.5 C 95 % 3.77 C
61 28-01-2021 05:00:00 4.5 C 95 % 3.77 C
62 28-01-2021 05:05:00 4.5 C 95 % 3.77 C
63 28-01-2021 05:10:00 4.5 C 95 % 3.77 C
64 28-01-2021 05:15:00 4.5 C 95 % 3.77 C
65 28-01-2021 05:20:00 4.5 C 95 % 3.77 C
66 28-01-2021 05:25:00 4.6 C 95 % 3.87 C
67 28-01-2021 05:30:00 4.5 C 95 % 3.77 C
68 28-01-2021 05:35:00 4.5 C 95 % 3.77 C
69 28-01-2021 05:40:00 4.5 C 95 % 3.77 C
70 28-01-2021 05:45:00 4.5 C 95 % 3.77 C
71 28-01-2021 05:50:00 4.5 C 95 % 3.77 C
72 28-01-2021 05:55:00 4.4 C 95 % 3.67 C
73 28-01-2021 06:00:00 4.4 C 95 % 3.67 C
74 28-01-2021 06:05:00 4.4 C 95 % 3.67 C
75 28-01-2021 06:10:00 4.4 C 96 % 3.82 C
Sensor: Nr:Datum:Temp:Feuchte:Taupunkt:
Aussen-T/F 76 28-01-2021 06:15:00 4.4 C 96 % 3.82 C
77 28-01-2021 06:20:00 4.4 C 96 % 3.82 C
78 28-01-2021 06:25:00 4.4 C 96 % 3.82 C
79 28-01-2021 06:30:00 4.4 C 96 % 3.82 C
80 28-01-2021 06:35:00 4.4 C 95 % 3.67 C
81 28-01-2021 06:40:00 4.4 C 95 % 3.67 C
82 28-01-2021 06:45:00 4.4 C 95 % 3.67 C
83 28-01-2021 06:50:00 4.4 C 96 % 3.82 C
84 28-01-2021 06:55:00 4.4 C 96 % 3.82 C
85 28-01-2021 07:00:00 4.3 C 96 % 3.72 C
86 28-01-2021 07:05:00 4.3 C 96 % 3.72 C
87 28-01-2021 07:10:00 4.3 C 96 % 3.72 C
88 28-01-2021 07:15:00 4.3 C 96 % 3.72 C
89 28-01-2021 07:20:00 4.3 C 96 % 3.72 C
90 28-01-2021 07:25:00 4.3 C 96 % 3.72 C
91 28-01-2021 07:30:00 4.3 C 96 % 3.72 C
92 28-01-2021 07:35:00 4.3 C 96 % 3.72 C
93 28-01-2021 07:40:00 4.3 C 96 % 3.72 C
94 28-01-2021 07:45:00 4.3 C 96 % 3.72 C
95 28-01-2021 07:50:00 4.3 C 96 % 3.72 C
96 28-01-2021 07:55:00 4.3 C 96 % 3.72 C
97 28-01-2021 08:00:00 4.2 C 96 % 3.62 C
98 28-01-2021 08:05:00 4.2 C 96 % 3.62 C
99 28-01-2021 08:10:00 4.2 C 96 % 3.62 C
100 28-01-2021 08:15:00 4.2 C 96 % 3.62 C
Sensor: Nr:Datum:Temp:Feuchte:Taupunkt:
Aussen-T/F 101 28-01-2021 08:20:00 4.2 C 96 % 3.62 C
102 28-01-2021 08:25:00 4.2 C 96 % 3.62 C
103 28-01-2021 08:30:00 4.2 C 96 % 3.62 C
104 28-01-2021 08:35:00 4.2 C 96 % 3.62 C
105 28-01-2021 08:40:00 4.2 C 96 % 3.62 C
106 28-01-2021 08:45:00 4.2 C 96 % 3.62 C
107 28-01-2021 08:50:00 4.2 C 96 % 3.62 C
108 28-01-2021 08:55:00 4.2 C 96 % 3.62 C
109 28-01-2021 09:00:00 4.3 C 96 % 3.72 C
110 28-01-2021 09:05:00 4.3 C 96 % 3.72 C
111 28-01-2021 09:10:00 4.3 C 96 % 3.72 C
112 28-01-2021 09:15:00 4.3 C 96 % 3.72 C
113 28-01-2021 09:20:00 4.3 C 96 % 3.72 C
114 28-01-2021 09:25:00 4.3 C 96 % 3.72 C
115 28-01-2021 09:30:00 4.3 C 96 % 3.72 C
116 28-01-2021 09:35:00 4.3 C 96 % 3.72 C
117 28-01-2021 09:40:00 4.4 C 96 % 3.82 C
118 28-01-2021 09:45:00 4.4 C 96 % 3.82 C
119 28-01-2021 09:50:00 4.4 C 96 % 3.82 C
120 28-01-2021 09:55:00 4.4 C 96 % 3.82 C
121 28-01-2021 10:00:00 4.4 C 96 % 3.82 C
122 28-01-2021 10:05:00 4.5 C 96 % 3.92 C
123 28-01-2021 10:10:00 4.5 C 96 % 3.92 C
124 28-01-2021 10:15:00 4.5 C 96 % 3.92 C
125 28-01-2021 10:20:00 4.6 C 96 % 4.02 C
Sensor: Nr:Datum:Temp:Feuchte:Taupunkt:
Aussen-T/F 126 28-01-2021 10:25:00 4.6 C 96 % 4.02 C
127 28-01-2021 10:30:00 4.6 C 96 % 4.02 C
128 28-01-2021 10:35:00 4.7 C 96 % 4.12 C
129 28-01-2021 10:40:00 4.7 C 97 % 4.27 C
130 28-01-2021 10:45:00 4.7 C 97 % 4.27 C
131 28-01-2021 10:50:00 4.8 C 97 % 4.37 C
132 28-01-2021 10:55:00 4.8 C 97 % 4.37 C
133 28-01-2021 11:00:00 4.8 C 97 % 4.37 C
134 28-01-2021 11:05:00 4.8 C 97 % 4.37 C
135 28-01-2021 11:10:00 4.8 C 97 % 4.37 C
136 28-01-2021 11:15:00 4.8 C 97 % 4.37 C
137 28-01-2021 11:20:00 4.8 C 97 % 4.37 C
138 28-01-2021 11:25:00 4.9 C 97 % 4.46 C
139 28-01-2021 11:30:00 5 C 97 % 4.56 C
140 28-01-2021 11:35:00 5.1 C 97 % 4.66 C
141 28-01-2021 11:40:00 5.2 C 97 % 4.76 C
142 28-01-2021 11:45:00 5.3 C 97 % 4.86 C
143 28-01-2021 11:50:00 5.4 C 97 % 4.96 C
144 28-01-2021 11:55:00 5.5 C 97 % 5.06 C
145 28-01-2021 12:00:00 5.6 C 97 % 5.16 C
146 28-01-2021 12:05:00 5.7 C 97 % 5.26 C
147 28-01-2021 12:10:00 5.8 C 97 % 5.36 C
148 28-01-2021 12:15:00 6 C 97 % 5.56 C
149 28-01-2021 12:20:00 6.2 C 97 % 5.76 C
150 28-01-2021 12:25:00 6.3 C 97 % 5.86 C
Sensor: Nr:Datum:Temp:Feuchte:Taupunkt:
Aussen-T/F 151 28-01-2021 12:30:00 6.4 C 97 % 5.96 C
152 28-01-2021 12:35:00 6.5 C 97 % 6.06 C
153 28-01-2021 12:40:00 6.7 C 97 % 6.26 C
154 28-01-2021 12:45:00 6.8 C 97 % 6.36 C
155 28-01-2021 12:50:00 6.8 C 97 % 6.36 C
156 28-01-2021 12:55:00 6.9 C 97 % 6.46 C
157 28-01-2021 13:00:00 6.9 C 97 % 6.46 C
158 28-01-2021 13:05:00 7.1 C 97 % 6.66 C
159 28-01-2021 13:10:00 7.3 C 97 % 6.86 C
160 28-01-2021 13:15:00 7.6 C 97 % 7.16 C
161 28-01-2021 13:20:00 7.7 C 97 % 7.25 C
162 28-01-2021 13:25:00 7.8 C 97 % 7.35 C
163 28-01-2021 13:30:00 7.9 C 97 % 7.45 C
164 28-01-2021 13:35:00 8.1 C 97 % 7.65 C
165 28-01-2021 13:40:00 8.2 C 97 % 7.75 C
166 28-01-2021 13:45:00 8.3 C 97 % 7.85 C
167 28-01-2021 13:50:00 8.4 C 97 % 7.95 C
168 28-01-2021 13:55:00 8.6 C 97 % 8.15 C
169 28-01-2021 14:00:00 8.7 C 97 % 8.25 C
170 28-01-2021 14:05:00 8.8 C 97 % 8.35 C
171 28-01-2021 14:10:00 8.9 C 97 % 8.45 C
172 28-01-2021 14:15:00 9.1 C 97 % 8.65 C
173 28-01-2021 14:20:00 9.1 C 96 % 8.5 C
174 28-01-2021 14:25:00 9.2 C 96 % 8.6 C
175 28-01-2021 14:30:00 9.4 C 96 % 8.8 C
Sensor: Nr:Datum:Temp:Feuchte:Taupunkt:
Aussen-T/F 176 28-01-2021 14:35:00 9.6 C 96 % 8.99 C
177 28-01-2021 14:40:00 9.7 C 96 % 9.09 C
178 28-01-2021 14:45:00 9.8 C 96 % 9.19 C
179 28-01-2021 14:50:00 9.9 C 95 % 9.14 C
180 28-01-2021 14:55:00 9.9 C 95 % 9.14 C
181 28-01-2021 15:00:00 10 C 95 % 9.24 C
182 28-01-2021 15:05:00 10.1 C 95 % 9.34 C
183 28-01-2021 15:10:00 10.2 C 95 % 9.44 C
184 28-01-2021 15:15:00 10.3 C 95 % 9.54 C
185 28-01-2021 15:20:00 10.3 C 95 % 9.54 C
186 28-01-2021 15:25:00 10.4 C 95 % 9.63 C
187 28-01-2021 15:30:00 10.4 C 95 % 9.63 C
188 28-01-2021 15:35:00 10.4 C 95 % 9.63 C
189 28-01-2021 15:40:00 10.4 C 95 % 9.63 C
190 28-01-2021 15:45:00 10.4 C 95 % 9.63 C
191 28-01-2021 15:50:00 10.4 C 95 % 9.63 C
192 28-01-2021 15:55:00 10.5 C 96 % 9.89 C
193 28-01-2021 16:00:00 10.6 C 96 % 9.99 C
194 28-01-2021 16:05:00 10.6 C 96 % 9.99 C
195 28-01-2021 16:10:00 10.6 C 96 % 9.99 C
196 28-01-2021 16:15:00 10.6 C 96 % 9.99 C
197 28-01-2021 16:20:00 10.6 C 96 % 9.99 C
198 28-01-2021 16:25:00 10.6 C 96 % 9.99 C
199 28-01-2021 16:30:00 10.6 C 96 % 9.99 C
200 28-01-2021 16:35:00 10.7 C 96 % 10.09 C
Sensor: Nr:Datum:Temp:Feuchte:Taupunkt:
Aussen-T/F 201 28-01-2021 16:40:00 10.7 C 95 % 9.93 C
202 28-01-2021 16:45:00 10.7 C 95 % 9.93 C
203 28-01-2021 16:50:00 10.7 C 95 % 9.93 C
204 28-01-2021 16:55:00 10.8 C 95 % 10.03 C
205 28-01-2021 17:00:00 10.9 C 94 % 9.97 C
206 28-01-2021 17:05:00 10.9 C 94 % 9.97 C
207 28-01-2021 17:10:00 10.9 C 93 % 9.81 C
208 28-01-2021 17:15:00 11 C 92 % 9.75 C
209 28-01-2021 17:20:00 11.1 C 91 % 9.69 C
210 28-01-2021 17:25:00 11.1 C 91 % 9.69 C
211 28-01-2021 17:30:00 11.1 C 91 % 9.69 C
212 28-01-2021 17:35:00 11.1 C 91 % 9.69 C
213 28-01-2021 17:40:00 10.9 C 91 % 9.49 C
214 28-01-2021 17:45:00 11.1 C 91 % 9.69 C
215 28-01-2021 17:50:00 11.1 C 90 % 9.52 C
216 28-01-2021 17:55:00 11.2 C 90 % 9.62 C
217 28-01-2021 18:00:00 11.2 C 89 % 9.46 C
218 28-01-2021 18:05:00 11.2 C 89 % 9.46 C
219 28-01-2021 18:10:00 11.2 C 89 % 9.46 C
220 28-01-2021 18:15:00 11.2 C 89 % 9.46 C
221 28-01-2021 18:20:00 11.2 C 89 % 9.46 C
222 28-01-2021 18:25:00 11.2 C 89 % 9.46 C
223 28-01-2021 18:30:00 11.1 C 89 % 9.36 C
224 28-01-2021 18:35:00 11.1 C 88 % 9.19 C
225 28-01-2021 18:40:00 11.2 C 88 % 9.29 C
Sensor: Nr:Datum:Temp:Feuchte:Taupunkt:
Aussen-T/F 226 28-01-2021 18:45:00 11.1 C 88 % 9.19 C
227 28-01-2021 18:50:00 11.2 C 88 % 9.29 C
228 28-01-2021 18:55:00 11.1 C 88 % 9.19 C
229 28-01-2021 19:00:00 11.1 C 88 % 9.19 C
230 28-01-2021 19:05:00 11.1 C 88 % 9.19 C
231 28-01-2021 19:10:00 11.1 C 88 % 9.19 C
232 28-01-2021 19:15:00 11.2 C 88 % 9.29 C
233 28-01-2021 19:20:00 11.2 C 87 % 9.12 C
234 28-01-2021 19:25:00 11.2 C 87 % 9.12 C
235 28-01-2021 19:30:00 11.2 C 87 % 9.12 C
236 28-01-2021 19:35:00 11.2 C 87 % 9.12 C
237 28-01-2021 19:40:00 11.1 C 87 % 9.02 C
238 28-01-2021 19:45:00 11.1 C 87 % 9.02 C
239 28-01-2021 19:50:00 11.2 C 87 % 9.12 C
240 28-01-2021 19:55:00 11.1 C 87 % 9.02 C
241 28-01-2021 20:00:00 11.1 C 87 % 9.02 C
242 28-01-2021 20:05:00 11 C 88 % 9.09 C
243 28-01-2021 20:10:00 10.9 C 89 % 9.16 C
244 28-01-2021 20:15:00 10.8 C 89 % 9.06 C
245 28-01-2021 20:20:00 10.7 C 90 % 9.13 C
246 28-01-2021 20:25:00 10.6 C 90 % 9.03 C
247 28-01-2021 20:30:00 10.6 C 90 % 9.03 C
248 28-01-2021 20:35:00 10.6 C 90 % 9.03 C
249 28-01-2021 20:40:00 10.6 C 90 % 9.03 C
250 28-01-2021 20:45:00 10.6 C 89 % 8.86 C
Sensor: Nr:Datum:Temp:Feuchte:Taupunkt:
Aussen-T/F 251 28-01-2021 20:50:00 10.5 C 90 % 8.93 C
252 28-01-2021 20:55:00 10.5 C 90 % 8.93 C
253 28-01-2021 21:00:00 10.4 C 90 % 8.83 C
254 28-01-2021 21:05:00 10.4 C 90 % 8.83 C
255 28-01-2021 21:10:00 10.3 C 90 % 8.73 C
256 28-01-2021 21:15:00 10.3 C 90 % 8.73 C
257 28-01-2021 21:20:00 10.2 C 90 % 8.64 C
258 28-01-2021 21:25:00 10.2 C 91 % 8.8 C
259 28-01-2021 21:30:00 10.2 C 90 % 8.64 C
260 28-01-2021 21:35:00 10.2 C 90 % 8.64 C
261 28-01-2021 21:40:00 10.2 C 90 % 8.64 C
262 28-01-2021 21:45:00 10.2 C 90 % 8.64 C
263 28-01-2021 21:50:00 10.2 C 90 % 8.64 C
264 28-01-2021 21:55:00 10.3 C 89 % 8.57 C
265 28-01-2021 22:00:00 10.3 C 89 % 8.57 C
266 28-01-2021 22:05:00 10.3 C 89 % 8.57 C
267 28-01-2021 22:10:00 10.4 C 88 % 8.5 C
268 28-01-2021 22:15:00 10.3 C 88 % 8.4 C
269 28-01-2021 22:20:00 10.3 C 88 % 8.4 C
270 28-01-2021 22:25:00 10.2 C 88 % 8.3 C
271 28-01-2021 22:30:00 10.1 C 89 % 8.37 C
272 28-01-2021 22:35:00 10.1 C 89 % 8.37 C
273 28-01-2021 22:40:00 9.9 C 89 % 8.17 C
274 28-01-2021 22:45:00 9.9 C 89 % 8.17 C
275 28-01-2021 22:50:00 9.8 C 89 % 8.08 C
Sensor: Nr:Datum:Temp:Feuchte:Taupunkt:
Aussen-T/F 276 28-01-2021 22:55:00 9.7 C 89 % 7.98 C
277 28-01-2021 23:00:00 9.6 C 89 % 7.88 C
278 28-01-2021 23:05:00 9.4 C 89 % 7.68 C
279 28-01-2021 23:10:00 9.3 C 89 % 7.58 C
280 28-01-2021 23:15:00 9.2 C 90 % 7.65 C
281 28-01-2021 23:20:00 9.1 C 90 % 7.55 C
282 28-01-2021 23:25:00 9 C 91 % 7.61 C
283 28-01-2021 23:30:00 8.9 C 91 % 7.51 C
284 28-01-2021 23:35:00 8.9 C 91 % 7.51 C
285 28-01-2021 23:40:00 8.9 C 91 % 7.51 C
286 28-01-2021 23:45:00 8.8 C 91 % 7.41 C
287 28-01-2021 23:50:00 8.7 C 91 % 7.32 C
288 28-01-2021 23:55:00 8.7 C 92 % 7.47 C

Legende:
   Min
   Max


Maximal/Minimal-Werte vom 28.01.2021 - 28.01.2021

Sensor Min Max Avg
Temp
(Aussen-T/F)
3.8 °C
28-01-2021  00:00:00
11.2 °C
28-01-2021  17:55:00
7.12 °C
Feuchte
(Aussen-T/F)
87 %
28-01-2021  19:20:00
97 %
28-01-2021  10:40:00
93.74 %
Taupunkt
(Aussen-T/F)
2.93 C
28-01-2021  00:00:00
10.09 C
28-01-2021  16:35:00
6.15 C

Die Daten stammen von einer Davis Vantage Pro 2 Wetter-Station und werden unter Linux mit der Software wview2wettercgi und aufbereitet. Alle Angaben erfolgen ohne Gewähr für ihre Vollständigkeit oder Richtigkeit.
Kontakt: Rainer Krienke krienke@uni-koblenz.de . Meine Webseiten an der Uni Koblenz oder privat.
Version: $Revision: 0.78 $